createdAt,value
2018-10-03T00:01:44.233Z,0.43
2018-10-03T00:04:11.895Z,0.30
2018-10-03T00:06:39.553Z,0.30
2018-10-03T00:09:07.980Z,0.70
2018-10-03T00:11:35.665Z,1.17
2018-10-03T00:14:03.620Z,0.40
2018-10-03T00:16:31.264Z,0.30
2018-10-03T00:18:58.964Z,0.47
2018-10-03T00:21:26.577Z,0.30
2018-10-03T00:23:54.221Z,0.37
2018-10-03T00:26:21.825Z,0.37
2018-10-03T00:28:49.468Z,0.30
2018-10-03T00:31:17.084Z,0.40
2018-10-03T00:33:44.902Z,0.30
2018-10-03T00:36:12.540Z,0.30
2018-10-03T00:38:40.219Z,0.20
2018-10-03T00:41:08.181Z,0.30
2018-10-03T00:43:36.060Z,0.20
2018-10-03T00:46:03.724Z,0.40
2018-10-03T00:48:31.387Z,0.40
2018-10-03T00:50:59.033Z,0.50
2018-10-03T00:53:26.661Z,0.40
2018-10-03T00:55:54.313Z,0.40
2018-10-03T00:58:22.046Z,0.40
2018-10-03T01:00:49.689Z,0.50
2018-10-03T01:03:17.348Z,0.60
2018-10-03T01:05:44.977Z,0.30
2018-10-03T01:08:12.593Z,0.60
2018-10-03T01:10:40.520Z,0.50
2018-10-03T01:13:08.181Z,0.50
2018-10-03T01:15:35.833Z,0.43
2018-10-03T01:18:03.697Z,0.30
2018-10-03T01:20:31.329Z,0.60
2018-10-03T01:22:58.965Z,0.50
2018-10-03T01:25:26.991Z,0.40
2018-10-03T01:27:54.649Z,0.30
2018-10-03T01:30:22.293Z,0.40
2018-10-03T01:32:49.958Z,0.50
2018-10-03T01:35:17.594Z,0.33
2018-10-03T01:37:45.562Z,0.40
2018-10-03T01:40:13.211Z,0.40
2018-10-03T01:42:40.864Z,0.60
2018-10-03T01:45:08.556Z,0.43
2018-10-03T01:47:36.249Z,0.50
2018-10-03T01:50:04.449Z,0.57
2018-10-03T01:52:32.065Z,0.57
2018-10-03T01:54:59.693Z,0.20
2018-10-03T01:57:27.457Z,0.40
2018-10-03T01:59:55.076Z,0.60
2018-10-03T02:02:22.726Z,0.70
2018-10-03T02:04:50.372Z,0.60
2018-10-03T02:07:18.031Z,1.00
2018-10-03T02:09:45.701Z,1.00
2018-10-03T02:12:13.337Z,0.93
2018-10-03T02:14:41.003Z,0.70
2018-10-03T02:17:08.648Z,0.87
2018-10-03T02:19:36.282Z,1.00
2018-10-03T02:22:03.948Z,0.87
2018-10-03T02:24:31.593Z,0.60
2018-10-03T02:26:59.228Z,0.90
2018-10-03T02:29:27.086Z,0.87
2018-10-03T02:31:54.721Z,1.10
2018-10-03T02:34:22.343Z,0.90
2018-10-03T02:36:50.005Z,0.70
2018-10-03T02:39:17.644Z,0.60
2018-10-03T02:41:45.268Z,0.70
2018-10-03T02:44:12.960Z,0.83
2018-10-03T02:46:40.577Z,0.90
2018-10-03T02:49:08.226Z,0.50
2018-10-03T02:51:35.877Z,0.80
2018-10-03T02:54:03.593Z,0.90
2018-10-03T02:56:31.364Z,0.50
2018-10-03T02:58:59.017Z,0.70
2018-10-03T03:01:26.710Z,0.80
2018-10-03T03:03:54.329Z,0.87
2018-10-03T03:06:22.013Z,0.80
2018-10-03T03:08:49.704Z,0.53
2018-10-03T03:11:17.272Z,0.70
2018-10-03T03:13:44.958Z,0.40
2018-10-03T03:16:12.589Z,0.60
2018-10-03T03:18:40.219Z,0.73
2018-10-03T03:21:07.861Z,0.40
2018-10-03T03:23:35.490Z,0.50
2018-10-03T03:26:03.091Z,0.57
2018-10-03T03:28:30.800Z,0.90
2018-10-03T03:30:58.419Z,0.67
2018-10-03T03:33:26.108Z,0.60
2018-10-03T03:35:53.766Z,0.57
2018-10-03T03:38:21.402Z,0.60
2018-10-03T03:40:49.055Z,0.67
2018-10-03T03:43:16.729Z,0.70
2018-10-03T03:45:44.432Z,0.50
2018-10-03T03:48:12.072Z,0.40
2018-10-03T03:50:39.706Z,0.47
2018-10-03T03:53:07.334Z,0.50
2018-10-03T03:55:35.021Z,0.40
2018-10-03T03:58:02.666Z,0.37
2018-10-03T04:00:30.293Z,0.30
2018-10-03T04:02:57.941Z,0.53
2018-10-03T04:05:25.590Z,0.30
2018-10-03T04:07:53.466Z,0.47
2018-10-03T04:10:21.141Z,0.40
2018-10-03T04:12:48.869Z,0.30
2018-10-03T04:15:16.543Z,0.40
2018-10-03T04:17:44.209Z,0.40
2018-10-03T04:20:11.929Z,0.40
2018-10-03T04:22:39.713Z,0.20
2018-10-03T04:25:07.380Z,0.20
2018-10-03T04:27:35.174Z,0.30
2018-10-03T04:30:02.834Z,0.23
2018-10-03T04:32:30.464Z,0.20
2018-10-03T04:34:58.105Z,0.17
2018-10-03T04:37:25.742Z,0.40
2018-10-03T04:39:53.431Z,0.30
2018-10-03T04:42:21.090Z,0.23
2018-10-03T04:44:48.721Z,0.30
2018-10-03T04:47:16.352Z,0.20
2018-10-03T04:49:43.993Z,0.10
2018-10-03T04:52:11.622Z,0.10
2018-10-03T04:54:39.429Z,0.10
2018-10-03T04:57:07.093Z,0.17
2018-10-03T04:59:34.740Z,0.10
2018-10-03T05:02:02.437Z,0.20
2018-10-03T05:04:30.085Z,0.23
2018-10-03T05:06:57.737Z,0.10
2018-10-03T05:09:25.367Z,0.30
2018-10-03T05:11:53.099Z,0.20
2018-10-03T05:14:20.752Z,0.10
2018-10-03T05:16:48.421Z,0.13
2018-10-03T05:19:16.149Z,0.10
2018-10-03T05:21:43.778Z,0.20
2018-10-03T05:24:11.425Z,0.20
2018-10-03T05:26:39.102Z,0.20
2018-10-03T05:29:06.745Z,0.10
2018-10-03T05:31:34.421Z,0.20
2018-10-03T05:34:08.948Z,0.30
2018-10-03T05:36:40.824Z,0.20
2018-10-03T05:39:11.999Z,0.20
2018-10-03T05:41:41.565Z,0.20
2018-10-03T05:44:11.323Z,0.23
2018-10-03T05:46:43.951Z,0.20
2018-10-03T05:49:12.445Z,0.20
2018-10-03T05:51:42.361Z,0.10
2018-10-03T05:54:11.270Z,0.10
2018-10-03T05:56:39.586Z,0.20
2018-10-03T05:59:08.284Z,0.20
2018-10-03T06:01:36.440Z,0.20
2018-10-03T06:04:05.609Z,0.27
2018-10-03T06:06:34.488Z,0.20
2018-10-03T06:09:05.595Z,0.03
2018-10-03T06:11:34.873Z,0.20
2018-10-03T06:14:03.816Z,0.20
2018-10-03T06:16:32.873Z,0.20
2018-10-03T06:19:02.814Z,0.20
2018-10-03T06:21:30.744Z,0.20
2018-10-03T06:24:02.001Z,0.10
2018-10-03T06:26:31.054Z,0.10
2018-10-03T06:28:59.045Z,0.20
2018-10-03T06:31:27.365Z,0.20
2018-10-03T06:33:55.397Z,0.20
2018-10-03T06:36:23.342Z,0.23
2018-10-03T06:38:51.923Z,0.20
2018-10-03T06:41:23.723Z,0.10
2018-10-03T06:43:51.707Z,0.20
2018-10-03T06:46:20.242Z,0.10
2018-10-03T06:48:48.231Z,0.27
2018-10-03T06:51:16.088Z,0.23
2018-10-03T06:53:43.949Z,0.10
2018-10-03T06:56:11.895Z,0.30
2018-10-03T06:58:39.741Z,0.17
2018-10-03T07:01:07.756Z,0.40
2018-10-03T07:03:36.142Z,0.30
2018-10-03T07:06:03.990Z,0.20
2018-10-03T07:08:31.879Z,0.30
2018-10-03T07:10:59.762Z,0.43
2018-10-03T07:13:28.624Z,0.23
2018-10-03T07:15:57.288Z,0.30
2018-10-03T07:18:27.451Z,0.20
2018-10-03T07:20:55.308Z,0.20
2018-10-03T07:23:23.183Z,0.20
2018-10-03T07:25:51.063Z,0.10
2018-10-03T07:28:18.903Z,0.20
2018-10-03T07:30:48.664Z,0.20
2018-10-03T07:33:16.856Z,0.10
2018-10-03T07:35:45.414Z,0.27
2018-10-03T07:38:14.427Z,0.30
2018-10-03T07:40:42.579Z,0.20
2018-10-03T07:43:10.871Z,0.10
2018-10-03T07:45:38.707Z,0.30
2018-10-03T07:48:07.578Z,0.23
2018-10-03T07:50:35.635Z,0.10
2018-10-03T07:53:03.570Z,0.10
2018-10-03T07:55:31.443Z,0.10
2018-10-03T07:57:59.435Z,0.30
2018-10-03T08:00:28.821Z,0.53
2018-10-03T08:02:58.537Z,0.10
2018-10-03T08:05:26.494Z,0.33
2018-10-03T08:07:54.161Z,0.10
2018-10-03T08:10:21.933Z,0.20
2018-10-03T08:12:49.578Z,0.20
2018-10-03T08:15:18.401Z,0.20
2018-10-03T08:17:47.149Z,0.30
2018-10-03T08:20:15.778Z,0.20
2018-10-03T08:22:44.250Z,0.20
2018-10-03T08:25:13.253Z,0.20
2018-10-03T08:27:43.111Z,0.10
2018-10-03T08:30:11.431Z,0.27
2018-10-03T08:32:39.724Z,0.17
2018-10-03T08:35:09.011Z,0.30
2018-10-03T08:37:37.271Z,0.30
2018-10-03T08:40:05.463Z,0.30
2018-10-03T08:42:33.837Z,0.20
2018-10-03T08:45:01.869Z,1.23
2018-10-03T08:47:29.804Z,0.20
2018-10-03T08:49:57.877Z,0.30
2018-10-03T08:52:26.307Z,0.20
2018-10-03T08:54:54.283Z,0.20
2018-10-03T08:57:22.347Z,0.30
2018-10-03T08:59:50.352Z,0.20
2018-10-03T09:02:18.957Z,0.17
2018-10-03T09:04:47.889Z,0.30
2018-10-03T09:07:16.778Z,0.37
2018-10-03T09:09:45.045Z,0.20
2018-10-03T09:12:13.145Z,0.20
2018-10-03T09:14:42.979Z,0.40
2018-10-03T09:17:12.433Z,0.20
2018-10-03T09:19:40.558Z,0.30
2018-10-03T09:22:10.577Z,0.20
2018-10-03T09:24:38.271Z,0.23
2018-10-03T09:27:05.913Z,0.40
2018-10-03T09:29:33.584Z,0.50
2018-10-03T09:32:01.364Z,0.30
2018-10-03T09:34:29.006Z,0.40
2018-10-03T09:36:56.680Z,0.30
2018-10-03T09:39:24.394Z,0.30
2018-10-03T09:41:52.034Z,0.10
2018-10-03T09:44:19.736Z,0.40
2018-10-03T09:46:47.402Z,0.30
2018-10-03T09:49:15.045Z,0.20
2018-10-03T09:51:42.668Z,0.47
2018-10-03T09:54:10.374Z,0.40
2018-10-03T09:56:37.993Z,0.60
2018-10-03T09:59:05.673Z,0.40
2018-10-03T10:01:34.119Z,0.40
2018-10-03T10:04:02.881Z,0.57
2018-10-03T10:06:31.732Z,0.40
2018-10-03T10:08:59.356Z,0.50
2018-10-03T10:11:27.143Z,0.53
2018-10-03T10:13:54.691Z,0.50
2018-10-03T10:16:22.336Z,0.60
2018-10-03T10:18:50.566Z,0.60
2018-10-03T10:21:18.198Z,0.57
2018-10-03T10:23:45.864Z,0.50
2018-10-03T10:26:13.513Z,0.50
2018-10-03T10:28:41.258Z,0.67
2018-10-03T10:31:09.009Z,0.70
2018-10-03T10:33:36.665Z,0.40
2018-10-03T10:36:04.358Z,0.43
2018-10-03T10:38:32.020Z,0.50
2018-10-03T10:40:59.704Z,0.50
2018-10-03T10:43:27.352Z,0.53
2018-10-03T10:45:55.041Z,0.53
2018-10-03T10:48:22.721Z,0.40
2018-10-03T10:50:50.373Z,0.60
2018-10-03T10:53:18.033Z,0.60
2018-10-03T10:55:45.662Z,0.60
2018-10-03T10:58:13.429Z,0.60
2018-10-03T11:00:41.088Z,0.80
2018-10-03T11:03:08.831Z,0.83
2018-10-03T11:05:36.548Z,0.53
2018-10-03T11:08:04.263Z,0.50
2018-10-03T11:10:31.893Z,1.10
2018-10-03T11:12:59.496Z,0.40
2018-10-03T11:15:27.290Z,0.50
2018-10-03T11:17:54.995Z,0.70
2018-10-03T11:20:22.621Z,0.70
2018-10-03T11:22:50.229Z,0.60
2018-10-03T11:25:17.991Z,0.80
2018-10-03T11:27:45.755Z,0.50
2018-10-03T11:30:13.424Z,0.40
2018-10-03T11:32:41.062Z,1.10
2018-10-03T11:35:08.705Z,0.40
2018-10-03T11:37:36.382Z,0.70
2018-10-03T11:40:04.237Z,0.40
2018-10-03T11:42:31.864Z,0.50
2018-10-03T11:44:59.534Z,0.50
2018-10-03T11:47:27.175Z,0.60
2018-10-03T11:49:54.853Z,0.60
2018-10-03T11:52:22.525Z,0.90
2018-10-03T11:54:50.157Z,0.50
2018-10-03T11:57:17.816Z,0.37
2018-10-03T11:59:45.448Z,0.63
2018-10-03T12:02:13.093Z,0.57
2018-10-03T12:04:40.733Z,0.70
2018-10-03T12:07:08.421Z,0.77
2018-10-03T12:09:36.044Z,0.70
2018-10-03T12:12:03.717Z,0.57
2018-10-03T12:14:31.357Z,0.73
2018-10-03T12:16:58.973Z,0.80
2018-10-03T12:19:26.666Z,0.70
2018-10-03T12:21:54.345Z,0.67
2018-10-03T12:24:21.961Z,0.50
2018-10-03T12:26:56.397Z,0.87
2018-10-03T12:29:24.021Z,0.50
2018-10-03T12:31:51.690Z,0.63
2018-10-03T12:34:19.326Z,0.80
2018-10-03T12:36:46.943Z,0.43
2018-10-03T12:39:14.583Z,0.60
2018-10-03T12:41:42.236Z,1.10
2018-10-03T12:44:09.877Z,0.93
2018-10-03T12:46:38.121Z,0.60
2018-10-03T12:49:05.822Z,0.50
2018-10-03T12:51:33.472Z,0.47
2018-10-03T12:54:01.128Z,0.80
2018-10-03T12:56:28.753Z,0.63
2018-10-03T12:58:56.448Z,0.57
2018-10-03T13:01:24.192Z,1.07
2018-10-03T13:03:51.757Z,0.60
2018-10-03T13:06:19.383Z,0.50
2018-10-03T13:08:46.985Z,0.77
2018-10-03T13:11:14.621Z,0.60
2018-10-03T13:13:42.237Z,0.83
2018-10-03T13:16:10.011Z,0.80
2018-10-03T13:18:37.630Z,0.90
2018-10-03T13:21:05.270Z,0.90
2018-10-03T13:23:32.898Z,0.77
2018-10-03T13:26:00.517Z,0.70
2018-10-03T13:28:28.213Z,0.53
2018-10-03T13:30:55.885Z,0.80
2018-10-03T13:33:23.537Z,0.80
2018-10-03T13:35:51.473Z,0.63
2018-10-03T13:38:19.104Z,0.70
2018-10-03T13:40:46.789Z,0.60
2018-10-03T13:43:14.409Z,0.77
2018-10-03T13:45:42.097Z,0.73
2018-10-03T13:48:09.793Z,0.70
2018-10-03T13:50:37.445Z,0.90
2018-10-03T13:53:05.104Z,1.00
2018-10-03T13:55:32.818Z,0.70
2018-10-03T13:58:00.444Z,0.80
2018-10-03T14:00:28.138Z,0.47
2018-10-03T14:02:55.762Z,0.50
2018-10-03T14:05:23.420Z,0.80
2018-10-03T14:07:51.140Z,0.50
2018-10-03T14:10:18.800Z,0.80
2018-10-03T14:12:46.477Z,0.77
2018-10-03T14:15:14.130Z,0.60
2018-10-03T14:17:41.800Z,0.80
2018-10-03T14:20:09.778Z,0.80
2018-10-03T14:22:37.416Z,0.70
2018-10-03T14:25:05.505Z,0.70
2018-10-03T14:27:33.164Z,0.70
2018-10-03T14:30:00.919Z,0.60
2018-10-03T14:32:28.537Z,0.57
2018-10-03T14:34:56.153Z,0.50
2018-10-03T14:37:23.837Z,1.00
2018-10-03T14:39:51.540Z,0.50
2018-10-03T14:42:19.148Z,0.40
2018-10-03T14:44:46.759Z,0.70
2018-10-03T14:47:14.423Z,0.60
2018-10-03T14:49:42.069Z,0.63
2018-10-03T14:52:09.774Z,0.50
2018-10-03T14:54:37.479Z,0.77
2018-10-03T14:57:05.129Z,0.53
2018-10-03T14:59:32.726Z,0.80
2018-10-03T15:02:00.397Z,0.60
2018-10-03T15:04:28.032Z,0.57
2018-10-03T15:06:55.670Z,0.40
2018-10-03T15:09:23.369Z,0.80
2018-10-03T15:11:51.005Z,0.83
2018-10-03T15:14:18.669Z,0.53
2018-10-03T15:16:46.392Z,0.60
2018-10-03T15:19:14.030Z,0.60
2018-10-03T15:21:41.702Z,0.60
2018-10-03T15:24:09.351Z,0.60
2018-10-03T15:26:37.018Z,0.67
2018-10-03T15:29:04.682Z,0.63
2018-10-03T15:31:32.389Z,0.77
2018-10-03T15:34:00.005Z,0.50
2018-10-03T15:36:27.737Z,0.50
2018-10-03T15:38:55.389Z,0.70
2018-10-03T15:41:23.005Z,0.70
2018-10-03T15:43:50.669Z,0.97
2018-10-03T15:46:18.314Z,0.93
2018-10-03T15:48:45.953Z,0.60
2018-10-03T15:51:14.502Z,0.67
2018-10-03T15:53:42.193Z,0.80
2018-10-03T15:56:09.813Z,0.77
2018-10-03T15:58:37.437Z,0.70
2018-10-03T16:01:05.406Z,0.60
2018-10-03T16:03:39.764Z,0.90
2018-10-03T16:06:07.429Z,0.93
2018-10-03T16:08:35.061Z,0.90
2018-10-03T16:11:02.755Z,0.57
2018-10-03T16:13:30.432Z,0.90
2018-10-03T16:15:58.135Z,0.70
2018-10-03T16:18:25.773Z,0.77
2018-10-03T16:20:53.405Z,0.70
2018-10-03T16:23:21.065Z,0.60
2018-10-03T16:25:48.740Z,0.97
2018-10-03T16:28:16.365Z,0.70
2018-10-03T16:30:44.012Z,1.23
2018-10-03T16:33:11.671Z,0.73
2018-10-03T16:35:39.296Z,0.80
2018-10-03T16:38:06.941Z,0.70
2018-10-03T16:40:34.561Z,0.70
2018-10-03T16:43:02.207Z,0.63
2018-10-03T16:45:29.836Z,0.70
2018-10-03T16:47:57.505Z,0.90
2018-10-03T16:50:25.140Z,1.00
2018-10-03T16:52:52.857Z,0.83
2018-10-03T16:55:20.594Z,0.80
2018-10-03T16:57:48.341Z,0.90
2018-10-03T17:00:15.960Z,0.87
2018-10-03T17:02:43.701Z,0.93
2018-10-03T17:05:11.446Z,0.87
2018-10-03T17:07:39.181Z,0.83
2018-10-03T17:10:08.229Z,0.90
2018-10-03T17:12:35.901Z,0.70
2018-10-03T17:15:03.641Z,1.07
2018-10-03T17:17:31.517Z,0.90
2018-10-03T17:19:59.162Z,0.80
2018-10-03T17:22:26.793Z,0.80
2018-10-03T17:24:54.798Z,0.70
2018-10-03T17:27:22.436Z,0.63
2018-10-03T17:29:50.049Z,0.77
2018-10-03T17:32:17.896Z,0.90
2018-10-03T17:34:45.523Z,0.77
2018-10-03T17:37:13.166Z,0.60
2018-10-03T17:39:40.820Z,0.50
2018-10-03T17:42:08.478Z,0.80
2018-10-03T17:44:36.154Z,0.50
2018-10-03T17:47:03.805Z,0.50
2018-10-03T17:49:31.437Z,0.93
2018-10-03T17:51:59.081Z,0.53
2018-10-03T17:54:26.791Z,0.80
2018-10-03T17:56:54.453Z,0.67
2018-10-03T17:59:22.082Z,1.00
2018-10-03T18:01:51.764Z,0.57
2018-10-03T18:04:19.517Z,0.70
2018-10-03T18:06:47.205Z,0.63
2018-10-03T18:09:14.983Z,0.80
2018-10-03T18:11:42.637Z,0.50
2018-10-03T18:14:10.284Z,0.70
2018-10-03T18:16:37.912Z,0.40
2018-10-03T18:19:05.726Z,0.67
2018-10-03T18:21:33.862Z,0.53
2018-10-03T18:24:01.482Z,0.93
2018-10-03T18:26:29.145Z,0.80
2018-10-03T18:28:56.797Z,0.43
2018-10-03T18:31:24.686Z,0.70
2018-10-03T18:33:52.976Z,0.77
2018-10-03T18:36:20.609Z,0.50
2018-10-03T18:38:48.471Z,0.40
2018-10-03T18:41:16.141Z,0.70
2018-10-03T18:43:43.789Z,0.60
2018-10-03T18:46:11.442Z,0.70
2018-10-03T18:48:39.084Z,0.43
2018-10-03T18:51:06.829Z,0.77
2018-10-03T18:53:34.593Z,0.70
2018-10-03T18:56:02.322Z,0.60
2018-10-03T18:58:30.041Z,0.57
2018-10-03T19:00:57.666Z,0.60
2018-10-03T19:03:25.308Z,0.40
2018-10-03T19:05:53.104Z,0.70
2018-10-03T19:08:20.673Z,0.50
2018-10-03T19:10:48.341Z,0.40
2018-10-03T19:13:15.955Z,0.47
2018-10-03T19:15:43.570Z,0.40
2018-10-03T19:18:11.421Z,0.37
2018-10-03T19:20:38.985Z,0.40
2018-10-03T19:23:06.599Z,0.30
2018-10-03T19:25:34.268Z,0.20
2018-10-03T19:28:01.936Z,0.40
2018-10-03T19:30:29.568Z,0.60
2018-10-03T19:32:57.264Z,0.20
2018-10-03T19:35:24.896Z,0.20
2018-10-03T19:37:52.541Z,0.20
2018-10-03T19:40:20.208Z,0.30
2018-10-03T19:42:47.879Z,0.20
2018-10-03T19:45:15.590Z,0.20
2018-10-03T19:47:43.205Z,0.20
2018-10-03T19:50:10.832Z,0.20
2018-10-03T19:52:38.517Z,0.27
2018-10-03T19:55:06.183Z,0.27
2018-10-03T19:57:33.813Z,0.20
2018-10-03T20:00:01.485Z,0.20
2018-10-03T20:02:29.145Z,0.20
2018-10-03T20:04:56.809Z,0.10
2018-10-03T20:07:24.504Z,0.20
2018-10-03T20:09:52.128Z,0.20
2018-10-03T20:12:19.744Z,0.17
2018-10-03T20:14:47.399Z,0.20
2018-10-03T20:17:15.017Z,0.20
2018-10-03T20:19:42.698Z,0.20
2018-10-03T20:22:10.747Z,0.10
2018-10-03T20:24:38.817Z,0.20
2018-10-03T20:27:06.518Z,0.10
2018-10-03T20:29:34.204Z,0.20
2018-10-03T20:32:01.933Z,0.20
2018-10-03T20:34:29.569Z,0.30
2018-10-03T20:36:57.217Z,0.20
2018-10-03T20:39:24.828Z,0.40
2018-10-03T20:41:52.543Z,0.20
2018-10-03T20:44:20.109Z,0.20
2018-10-03T20:46:47.721Z,0.20
2018-10-03T20:49:15.377Z,0.60
2018-10-03T20:51:42.990Z,0.47
2018-10-03T20:54:10.753Z,0.20
2018-10-03T20:56:38.368Z,0.20
2018-10-03T20:59:05.993Z,0.20
2018-10-03T21:01:33.637Z,0.20
2018-10-03T21:04:01.260Z,0.40
2018-10-03T21:06:28.876Z,0.10
2018-10-03T21:08:56.557Z,0.33
2018-10-03T21:11:24.241Z,0.10
2018-10-03T21:13:51.865Z,0.20
2018-10-03T21:16:19.499Z,0.20
2018-10-03T21:18:47.124Z,0.10
2018-10-03T21:21:14.820Z,0.20
2018-10-03T21:23:42.464Z,0.20
2018-10-03T21:26:10.074Z,0.50
2018-10-03T21:28:37.821Z,0.27
2018-10-03T21:31:05.466Z,0.30
2018-10-03T21:33:33.075Z,0.13
2018-10-03T21:36:00.713Z,0.10
2018-10-03T21:38:28.360Z,0.20
2018-10-03T21:40:55.973Z,0.17
2018-10-03T21:43:23.580Z,0.30
2018-10-03T21:45:51.290Z,0.20
2018-10-03T21:48:18.907Z,0.30
2018-10-03T21:50:46.523Z,0.30
2018-10-03T21:53:14.210Z,0.20
2018-10-03T21:55:42.062Z,0.20
2018-10-03T21:58:09.689Z,0.10
2018-10-03T22:00:42.837Z,0.27
2018-10-03T22:03:10.449Z,0.30
2018-10-03T22:05:38.136Z,0.10
2018-10-03T22:08:05.761Z,0.20
2018-10-03T22:10:33.389Z,0.10
2018-10-03T22:13:01.016Z,0.20
2018-10-03T22:15:28.657Z,0.20
2018-10-03T22:17:56.279Z,0.30
2018-10-03T22:20:23.888Z,0.10
2018-10-03T22:22:51.553Z,0.20
2018-10-03T22:25:19.178Z,0.20
2018-10-03T22:27:46.805Z,0.20
2018-10-03T22:30:14.534Z,0.10
2018-10-03T22:32:42.137Z,0.20
2018-10-03T22:35:09.777Z,0.20
2018-10-03T22:37:37.438Z,0.30
2018-10-03T22:40:05.135Z,0.17
2018-10-03T22:42:32.765Z,0.10
2018-10-03T22:45:00.400Z,0.10
2018-10-03T22:47:28.057Z,0.20
2018-10-03T22:49:55.725Z,0.27
2018-10-03T22:52:23.509Z,0.10
2018-10-03T22:54:51.142Z,0.20
2018-10-03T22:57:18.860Z,0.20
2018-10-03T22:59:46.482Z,0.10
2018-10-03T23:02:14.129Z,0.20
2018-10-03T23:04:41.793Z,0.20
2018-10-03T23:07:09.404Z,0.23
2018-10-03T23:09:37.079Z,0.20
2018-10-03T23:12:04.705Z,0.20
2018-10-03T23:14:32.336Z,0.10
2018-10-03T23:16:59.973Z,0.17
2018-10-03T23:19:27.626Z,0.20
2018-10-03T23:21:55.284Z,0.10
2018-10-03T23:24:22.902Z,0.20
2018-10-03T23:26:50.525Z,0.10
2018-10-03T23:29:18.181Z,0.20
2018-10-03T23:31:45.817Z,0.20
2018-10-03T23:34:13.446Z,0.30
2018-10-03T23:36:41.072Z,0.10
2018-10-03T23:39:10.292Z,0.20
2018-10-03T23:41:38.313Z,0.20
2018-10-03T23:44:06.002Z,0.20
2018-10-03T23:46:33.914Z,0.10
2018-10-03T23:49:01.561Z,0.20
2018-10-03T23:51:29.189Z,0.20
2018-10-03T23:53:56.824Z,0.10
2018-10-03T23:56:24.505Z,0.10
2018-10-03T23:58:52.133Z,0.30
